Time;durP1;ratioP1;P1;durP2;ratioP2;P2;SDS_P1;SDS_P2;PMS_P1;PMS_P2;Temp;Humidity;BMP_temperature;BMP_pressure;BME280_temperature;BME280_humidity;BME280_pressure;Samples;Min_cycle;Max_cycle;Signal;HPM_P1;HPM_P2
2021/05/21 00:01:01;;;;;;;1.80;0.90;;;;;;;18.91;45.08;100610.41;5082349;28;20044;-74
2021/05/21 00:03:28;;;;;;;2.20;1.02;;;;;;;18.90;44.98;100612.28;5082065;28;20516;-74
2021/05/21 00:05:55;;;;;;;1.27;0.90;;;;;;;18.88;44.83;100594.69;5098713;28;20524;-74
2021/05/21 00:08:21;;;;;;;1.00;0.80;;;;;;;18.90;45.02;100593.47;5082038;28;20082;-74
2021/05/21 00:10:49;;;;;;;2.53;1.00;;;;;;;18.91;45.16;100583.53;5081791;28;20036;-74
2021/05/21 00:13:16;;;;;;;2.78;1.08;;;;;;;18.90;45.08;100577.34;5116833;28;20039;-74
2021/05/21 00:15:43;;;;;;;1.15;0.82;;;;;;;18.91;45.10;100578.16;5098712;28;20075;-74
2021/05/21 00:18:10;;;;;;;1.50;0.70;;;;;;;18.90;45.11;100571.13;5098394;28;20055;-74
2021/05/21 00:20:37;;;;;;;1.20;0.80;;;;;;;18.91;44.92;100575.47;5098842;28;20534;-74
2021/05/21 00:23:04;;;;;;;0.73;0.70;;;;;;;18.90;44.96;100573.78;5092458;28;20052;-75
2021/05/21 00:25:31;;;;;;;1.88;0.82;;;;;;;18.90;45.03;100568.41;5064992;28;20134;-74
2021/05/21 00:27:57;;;;;;;1.20;0.70;;;;;;;18.90;45.27;100560.34;5086058;28;20071;-74
2021/05/21 00:30:25;;;;;;;1.50;1.00;;;;;;;18.88;45.15;100549.00;5114947;28;20043;-74
2021/05/21 00:32:52;;;;;;;2.28;0.90;;;;;;;18.88;45.31;100541.78;5098781;28;20721;-74
2021/05/21 00:35:19;;;;;;;3.05;0.90;;;;;;;18.90;45.08;100549.63;5065595;28;20048;-74
2021/05/21 00:37:46;;;;;;;2.30;0.90;;;;;;;18.88;45.06;100551.69;5115042;28;20067;-74
2021/05/21 00:40:13;;;;;;;1.63;0.85;;;;;;;18.88;45.04;100536.41;5098003;28;20040;-74
2021/05/21 00:42:40;;;;;;;1.48;0.80;;;;;;;18.89;45.00;100539.91;5098106;28;20131;-74
2021/05/21 00:45:07;;;;;;;1.25;0.80;;;;;;;18.85;45.17;100533.31;5116277;28;20036;-74
2021/05/21 00:47:34;;;;;;;1.73;0.80;;;;;;;18.89;45.10;100538.03;5093759;28;20043;-75
2021/05/21 00:50:02;;;;;;;0.93;0.68;;;;;;;18.89;45.09;100537.22;5111572;28;20047;-74
2021/05/21 00:52:30;;;;;;;1.77;0.90;;;;;;;18.87;45.10;100521.31;5114922;28;20130;-74
2021/05/21 00:54:57;;;;;;;1.40;0.80;;;;;;;18.88;45.36;100514.91;5114787;28;20048;-74
2021/05/21 00:57:24;;;;;;;1.52;0.77;;;;;;;18.78;45.10;100495.69;5114738;28;20042;-74
2021/05/21 00:59:52;;;;;;;1.67;0.80;;;;;;;18.87;44.98;100507.88;5114361;28;20044;-74
2021/05/21 01:02:19;;;;;;;1.08;0.80;;;;;;;18.88;45.20;100508.69;5114960;28;20083;-74
2021/05/21 01:04:46;;;;;;;1.70;0.80;;;;;;;18.88;45.06;100506.00;5115017;28;20553;-75
2021/05/21 01:07:13;;;;;;;1.52;0.80;;;;;;;18.88;45.04;100498.78;5097115;28;20071;-75
2021/05/21 01:09:40;;;;;;;1.55;0.80;;;;;;;18.87;45.10;100497.13;5115424;27;20085;-74
2021/05/21 01:12:08;;;;;;;1.77;0.70;;;;;;;18.78;44.98;100472.34;5097393;28;20075;-74
2021/05/21 01:14:35;;;;;;;1.40;0.70;;;;;;;18.88;45.03;100490.72;5097687;28;20071;-74
2021/05/21 01:17:02;;;;;;;0.80;0.80;;;;;;;18.87;45.07;100485.56;5097771;28;20039;-75
2021/05/21 01:19:28;;;;;;;1.17;0.80;;;;;;;18.88;45.12;100487.19;5114419;28;20077;-75
2021/05/21 01:21:55;;;;;;;2.05;0.80;;;;;;;18.88;45.11;100489.88;5097487;28;20097;-75
2021/05/21 01:24:23;;;;;;;1.50;0.75;;;;;;;18.88;45.07;100492.56;5080656;28;20130;-75
2021/05/21 01:26:50;;;;;;;1.85;0.88;;;;;;;18.84;45.18;100475.22;5114947;28;20070;-75
2021/05/21 01:29:17;;;;;;;1.27;0.80;;;;;;;18.87;45.21;100475.63;5114147;28;20051;-75
2021/05/21 01:31:44;;;;;;;1.00;0.80;;;;;;;18.87;44.92;100467.56;5080903;28;20047;-75
2021/05/21 01:34:11;;;;;;;0.95;0.70;;;;;;;18.87;45.16;100464.88;5114005;28;20413;-75
2021/05/21 01:36:38;;;;;;;0.65;0.60;;;;;;;18.86;45.05;100457.84;5115033;28;20127;-75
2021/05/21 01:39:09;;;;;;;0.93;0.65;;;;;;;18.86;45.18;100457.03;5097061;28;20063;-75
2021/05/21 01:41:38;;;;;;;1.45;0.70;;;;;;;18.82;45.09;100445.88;5096738;28;20043;-75
2021/05/21 01:44:08;;;;;;;3.17;0.90;;;;;;;18.87;45.07;100450.63;5114042;28;20046;-75
2021/05/21 01:46:36;;;;;;;1.10;0.73;;;;;;;18.87;45.10;100447.94;5087318;28;20469;-75
2021/05/21 01:49:05;;;;;;;1.77;0.88;;;;;;;18.87;44.95;100437.19;5114212;28;20080;-75
2021/05/21 01:51:33;;;;;;;0.90;0.70;;;;;;;18.87;45.01;100439.88;5112684;28;20050;-74
2021/05/21 01:54:19;;;;;;;1.35;0.70;;;;;;;18.87;45.02;100429.94;5113165;28;20473;-75
2021/05/21 01:56:48;;;;;;;1.17;0.57;;;;;;;18.88;44.92;100422.69;5113650;28;20051;-75
2021/05/21 01:59:15;;;;;;;1.08;0.63;;;;;;;18.87;45.00;100429.94;5080302;28;20503;-75
2021/05/21 02:01:42;;;;;;;1.10;0.65;;;;;;;18.87;44.84;100427.25;5113359;28;20459;-75
2021/05/21 02:04:09;;;;;;;1.05;0.70;;;;;;;18.87;45.03;100418.38;5114376;28;20085;-75
2021/05/21 02:06:38;;;;;;;1.60;0.85;;;;;;;18.87;45.15;100411.13;5095949;28;20043;-75
2021/05/21 02:09:09;;;;;;;1.05;0.70;;;;;;;18.83;45.13;100403.72;5097062;28;20538;-75
2021/05/21 02:11:37;;;;;;;0.80;0.60;;;;;;;18.87;44.98;100413.81;5113079;28;20476;-75
2021/05/21 02:14:05;;;;;;;0.55;0.55;;;;;;;18.85;45.02;100401.66;5092886;28;20122;-75
2021/05/21 02:16:32;;;;;;;0.75;0.60;;;;;;;18.86;45.13;100405.97;5059602;28;20487;-75
2021/05/21 02:18:59;;;;;;;0.80;0.60;;;;;;;18.87;45.00;100404.94;5059274;28;20048;-75
2021/05/21 02:21:32;;;;;;;1.40;0.90;;;;;;;18.86;45.16;100396.03;5076345;28;20065;-74
2021/05/21 02:24:00;;;;;;;0.60;0.60;;;;;;;18.86;45.05;100387.97;5094552;28;20064;-75
2021/05/21 02:26:28;;;;;;;0.85;0.60;;;;;;;18.85;44.95;100388.22;5113965;28;20043;-75
2021/05/21 02:28:55;;;;;;;0.93;0.68;;;;;;;18.84;45.01;100383.88;5096348;28;20044;-75
2021/05/21 02:31:22;;;;;;;0.88;0.63;;;;;;;18.76;45.02;100369.63;5095744;28;20495;-74
2021/05/21 02:33:49;;;;;;;1.75;0.90;;;;;;;18.84;45.10;100382.00;5112945;28;20040;-75
2021/05/21 02:36:16;;;;;;;0.80;0.63;;;;;;;18.86;44.91;100384.47;5079368;28;20055;-75
2021/05/21 02:38:43;;;;;;;2.53;0.80;;;;;;;18.86;44.91;100379.91;5096528;28;20043;-74
2021/05/21 02:41:10;;;;;;;1.48;0.80;;;;;;;18.86;45.10;100376.41;5114097;28;20042;-74
2021/05/21 02:43:37;;;;;;;0.82;0.77;;;;;;;18.77;44.68;100359.69;5099326;28;20036;-74
2021/05/21 02:46:04;;;;;;;0.90;0.77;;;;;;;18.85;45.13;100375.59;5093004;28;20036;-75
2021/05/21 02:48:30;;;;;;;0.60;0.60;;;;;;;18.84;45.01;100370.44;5081417;28;21293;-75
2021/05/21 02:50:59;;;;;;;2.13;0.88;;;;;;;18.84;45.04;100363.19;5114107;28;20085;-74
2021/05/21 02:53:26;;;;;;;1.02;0.70;;;;;;;18.86;45.31;100365.66;5112961;28;20047;-75
2021/05/21 02:55:53;;;;;;;2.03;0.70;;;;;;;18.85;44.69;100369.41;5095978;28;20376;-74
2021/05/21 02:58:20;;;;;;;1.17;0.70;;;;;;;18.85;44.95;100372.91;5096188;28;20043;-75
2021/05/21 03:00:47;;;;;;;1.70;0.85;;;;;;;18.81;44.92;100360.97;5079217;28;20074;-74
2021/05/21 03:03:14;;;;;;;1.10;0.60;;;;;;;18.84;45.12;100365.88;5093993;28;20036;-75
2021/05/21 03:05:41;;;;;;;1.10;0.52;;;;;;;18.73;45.10;100345.88;5075448;28;20131;-74
2021/05/21 03:08:09;;;;;;;1.70;0.90;;;;;;;18.84;44.98;100360.50;5058665;28;20052;-74
2021/05/21 03:10:36;;;;;;;1.05;0.70;;;;;;;18.80;45.26;100349.34;5058972;28;20046;-75
2021/05/21 03:13:03;;;;;;;0.75;0.70;;;;;;;18.84;45.17;100351.63;5075430;28;20044;-75
2021/05/21 03:15:30;;;;;;;0.98;0.60;;;;;;;18.81;44.99;100342.16;5075595;28;20040;-75
2021/05/21 03:17:59;;;;;;;1.25;0.80;;;;;;;18.84;45.07;100338.19;5058573;28;20059;-74
2021/05/21 03:20:26;;;;;;;1.50;0.70;;;;;;;18.84;45.25;100336.31;5059547;28;20055;-74
2021/05/21 03:22:54;;;;;;;0.68;0.50;;;;;;;18.83;45.00;100329.31;5091933;28;20036;-75
2021/05/21 03:25:21;;;;;;;1.25;0.70;;;;;;;18.73;44.97;100305.56;5060303;28;20408;-74
2021/05/21 03:27:48;;;;;;;0.88;0.60;;;;;;;18.84;44.90;100316.69;5075106;28;20040;-75
2021/05/21 03:30:15;;;;;;;1.45;0.82;;;;;;;18.84;45.03;100325.56;5092953;28;20507;-74
2021/05/21 03:32:43;;;;;;;1.05;0.70;;;;;;;18.83;45.00;100323.94;5075367;28;20508;-74
2021/05/21 03:35:10;;;;;;;1.33;0.47;;;;;;;18.74;45.06;100309.09;5093228;28;20046;-74
2021/05/21 03:37:37;;;;;;;1.10;0.70;;;;;;;18.81;44.89;100315.28;5074950;28;20123;-74
2021/05/21 03:40:06;;;;;;;0.82;0.40;;;;;;;18.83;45.16;100317.72;5074780;28;20067;-74
2021/05/21 03:42:33;;;;;;;0.90;0.70;;;;;;;18.80;44.95;100310.91;5091867;28;20130;-74
2021/05/21 03:45:00;;;;;;;1.15;0.60;;;;;;;18.83;45.18;100318.56;5111320;28;20070;-74
2021/05/21 03:47:27;;;;;;;1.27;0.52;;;;;;;18.80;45.04;100308.22;5094874;28;20047;-75
2021/05/21 03:49:54;;;;;;;0.73;0.60;;;;;;;18.83;44.99;100312.34;5098885;28;20046;-74
2021/05/21 03:52:21;;;;;;;0.80;0.70;;;;;;;18.75;44.93;100294.59;5093012;28;20048;-74
2021/05/21 03:54:48;;;;;;;0.95;0.68;;;;;;;18.84;44.95;100314.81;5099649;28;20490;-75
2021/05/21 03:57:15;;;;;;;1.70;0.70;;;;;;;18.83;45.04;100297.06;5094899;28;20044;-75
2021/05/21 03:59:42;;;;;;;0.73;0.68;;;;;;;18.84;45.14;100303.25;5095340;28;20051;-75
2021/05/21 04:02:11;;;;;;;0.57;0.52;;;;;;;18.74;44.96;100279.53;5112096;28;20057;-74
2021/05/21 04:04:38;;;;;;;1.33;0.65;;;;;;;18.82;45.05;100294.59;5065813;28;20044;-75
2021/05/21 04:07:05;;;;;;;0.55;0.50;;;;;;;18.84;45.04;100296.00;5111676;28;20043;-75
2021/05/21 04:09:32;;;;;;;0.70;0.60;;;;;;;18.84;45.11;100292.50;5111642;28;20051;-75
2021/05/21 04:11:59;;;;;;;2.55;0.80;;;;;;;18.84;45.09;100287.94;5111605;28;20051;-75
2021/05/21 04:14:26;;;;;;;0.80;0.63;;;;;;;18.84;45.03;100287.94;5112248;28;20085;-75
2021/05/21 04:16:53;;;;;;;0.60;0.60;;;;;;;18.85;45.05;100286.09;5115379;28;20044;-75
2021/05/21 04:19:20;;;;;;;0.75;0.50;;;;;;;18.82;44.95;100279.28;5115423;28;20063;-74
2021/05/21 04:21:47;;;;;;;0.82;0.50;;;;;;;18.84;45.09;100274.50;5115426;28;20031;-75
2021/05/21 04:24:14;;;;;;;1.00;0.60;;;;;;;18.80;44.91;100273.28;5116595;28;20081;-75
2021/05/21 04:26:41;;;;;;;0.77;0.50;;;;;;;18.84;44.86;100281.75;5098352;28;20039;-74
2021/05/21 04:29:08;;;;;;;1.08;0.45;;;;;;;18.81;44.95;100264.22;5105577;28;20040;-75
2021/05/21 04:31:35;;;;;;;1.77;0.68;;;;;;;18.84;45.08;100266.44;5098328;28;20036;-74
2021/05/21 04:34:02;;;;;;;0.73;0.55;;;;;;;18.80;44.92;100263.34;5115488;28;20078;-74
2021/05/21 04:36:31;;;;;;;0.35;0.35;;;;;;;18.85;45.02;100269.97;5115058;28;20405;-75
2021/05/21 04:39:00;;;;;;;0.50;0.50;;;;;;;18.85;44.94;100267.28;5098522;28;20110;-74
2021/05/21 04:41:27;;;;;;;1.27;0.70;;;;;;;18.84;44.75;100255.69;5098110;28;20047;-74
2021/05/21 04:43:54;;;;;;;1.02;0.70;;;;;;;18.77;44.95;100258.44;5094696;28;20048;-74
2021/05/21 04:46:21;;;;;;;0.73;0.52;;;;;;;18.83;44.86;100264.81;5077988;28;20042;-74
2021/05/21 04:48:48;;;;;;;0.57;0.47;;;;;;;18.82;44.89;100256.97;5077320;28;20073;-75
2021/05/21 04:51:15;;;;;;;0.98;0.65;;;;;;;18.81;44.83;100253.47;5115020;28;20112;-75
2021/05/21 04:53:42;;;;;;;1.10;0.70;;;;;;;18.81;45.00;100264.22;5114630;28;20137;-75
2021/05/21 04:56:10;;;;;;;0.68;0.50;;;;;;;18.85;44.86;100262.72;5077375;28;20127;-74
2021/05/21 04:58:37;;;;;;;1.20;0.50;;;;;;;18.85;44.78;100268.09;5077533;28;20040;-74
2021/05/21 05:01:04;;;;;;;1.23;0.60;;;;;;;18.85;45.08;100259.22;5094358;28;20063;-74
2021/05/21 05:03:31;;;;;;;1.02;0.57;;;;;;;18.85;44.96;100254.66;5077213;28;20086;-74
2021/05/21 05:05:59;;;;;;;1.85;0.60;;;;;;;18.83;44.87;100255.91;5093971;28;20040;-75
2021/05/21 05:08:27;;;;;;;1.27;0.57;;;;;;;18.83;44.99;100251.38;5077133;28;20052;-74
2021/05/21 05:10:55;;;;;;;1.02;0.57;;;;;;;18.86;44.76;100242.06;5085476;28;20067;-74
2021/05/21 05:13:22;;;;;;;1.45;0.75;;;;;;;18.84;44.79;100239.59;5094139;28;20075;-74
2021/05/21 05:15:49;;;;;;;1.27;0.50;;;;;;;18.84;44.78;100239.59;5093700;28;20040;-75
2021/05/21 05:18:16;;;;;;;0.50;0.45;;;;;;;18.85;45.17;100243.94;5093711;28;20051;-75
2021/05/21 05:20:44;;;;;;;1.25;0.60;;;;;;;18.86;44.87;100242.06;5094087;28;20056;-75
2021/05/21 05:23:12;;;;;;;1.13;0.60;;;;;;;18.82;44.80;100230.91;5095516;28;20047;-74
2021/05/21 05:25:41;;;;;;;1.38;0.68;;;;;;;18.86;44.66;100242.88;5109139;28;20559;-74
2021/05/21 05:28:09;;;;;;;1.08;0.63;;;;;;;18.86;44.95;100239.38;5114097;28;20075;-74
2021/05/21 05:30:36;;;;;;;1.17;0.70;;;;;;;18.84;44.69;100234.22;5113904;28;20131;-75
2021/05/21 05:33:03;;;;;;;1.58;0.57;;;;;;;18.87;44.85;100235.66;5080854;28;20063;-75
2021/05/21 05:35:30;;;;;;;0.60;0.60;;;;;;;18.78;44.88;100227.00;5097182;28;20047;-74
2021/05/21 05:37:57;;;;;;;1.65;0.60;;;;;;;18.86;44.73;100229.44;5113968;28;20063;-74
2021/05/21 05:40:25;;;;;;;0.57;0.57;;;;;;;18.86;44.79;100226.75;5113656;28;20384;-74
2021/05/21 05:42:52;;;;;;;1.25;0.70;;;;;;;18.88;44.95;100234.59;5089091;28;20093;-74
2021/05/21 05:45:19;;;;;;;0.40;0.40;;;;;;;18.88;44.95;100230.06;5076613;28;20075;-75
2021/05/21 05:47:46;;;;;;;0.68;0.60;;;;;;;18.86;44.93;100225.94;5076734;28;20040;-75
2021/05/21 05:50:13;;;;;;;2.20;0.57;;;;;;;18.87;44.94;100227.59;5095612;28;20054;-75
2021/05/21 05:52:40;;;;;;;0.55;0.52;;;;;;;18.88;45.12;100229.22;5063459;28;20040;-74
2021/05/21 05:55:09;;;;;;;1.00;0.47;;;;;;;18.88;44.99;100223.84;5065529;28;20051;-75
2021/05/21 05:57:37;;;;;;;0.85;0.70;;;;;;;18.88;44.97;100216.63;5107429;28;20043;-75
2021/05/21 06:00:06;;;;;;;1.50;0.52;;;;;;;18.88;44.97;100219.31;5076608;28;20048;-75
2021/05/21 06:02:34;;;;;;;1.08;0.50;;;;;;;18.89;44.81;100214.75;5094466;28;20668;-75
2021/05/21 06:05:02;;;;;;;0.77;0.52;;;;;;;18.88;45.01;100213.09;5093395;28;20040;-74
2021/05/21 06:07:29;;;;;;;0.60;0.60;;;;;;;18.85;44.80;100203.63;5043257;28;20040;-75
2021/05/21 06:09:57;;;;;;;1.20;0.60;;;;;;;18.91;44.81;100204.59;5060185;28;20048;-75
2021/05/21 06:12:24;;;;;;;2.42;0.60;;;;;;;18.91;44.95;100204.59;5076253;28;20044;-75
2021/05/21 06:14:51;;;;;;;0.57;0.47;;;;;;;18.92;44.94;100207.06;5077624;28;20119;-74
2021/05/21 06:17:19;;;;;;;0.43;0.43;;;;;;;18.91;44.89;100216.16;5060276;28;20050;-75
2021/05/21 06:19:47;;;;;;;1.00;0.50;;;;;;;18.92;45.03;100203.56;5093615;28;20040;-74
2021/05/21 06:22:15;;;;;;;0.73;0.50;;;;;;;18.90;45.01;100209.16;5093222;28;20049;-75
2021/05/21 06:24:45;;;;;;;0.60;0.40;;;;;;;18.92;44.97;100192.81;5083596;28;20500;-74
2021/05/21 06:27:15;;;;;;;0.90;0.50;;;;;;;18.90;44.94;100197.56;5113879;28;20051;-75
2021/05/21 06:29:43;;;;;;;1.17;0.60;;;;;;;18.92;44.95;100195.50;5096780;28;20075;-75
2021/05/21 06:32:10;;;;;;;1.00;0.63;;;;;;;18.93;45.00;100197.13;5048953;28;20460;-75
2021/05/21 06:34:37;;;;;;;1.08;0.57;;;;;;;18.95;44.89;100195.03;5113721;28;20040;-75
2021/05/21 06:37:04;;;;;;;0.40;0.40;;;;;;;18.95;44.82;100184.28;5085179;28;20074;-75
2021/05/21 06:39:31;;;;;;;1.00;0.50;;;;;;;18.97;44.75;100190.25;5075062;28;20488;-75
2021/05/21 06:41:58;;;;;;;0.68;0.50;;;;;;;18.99;44.69;100196.22;5071234;28;20547;-75
2021/05/21 06:44:27;;;;;;;0.82;0.55;;;;;;;18.99;44.60;100189.00;5095680;28;20047;-75
2021/05/21 06:46:58;;;;;;;0.50;0.50;;;;;;;19.00;44.68;100195.19;5066284;28;20074;-75
2021/05/21 06:49:26;;;;;;;0.65;0.60;;;;;;;19.01;44.81;100190.63;5082746;28;20051;-75
2021/05/21 06:51:53;;;;;;;0.82;0.50;;;;;;;19.00;44.67;100192.50;5104623;28;20040;-75
2021/05/21 06:54:20;;;;;;;0.52;0.45;;;;;;;19.01;44.88;100204.91;5094716;28;20128;-75
2021/05/21 06:56:47;;;;;;;0.80;0.70;;;;;;;19.02;44.84;100201.16;5083201;28;20093;-74
2021/05/21 06:59:14;;;;;;;0.52;0.50;;;;;;;19.03;44.83;100201.97;5093316;28;20481;-75
2021/05/21 07:01:43;;;;;;;1.20;0.50;;;;;;;19.02;44.74;100203.84;5093263;28;20036;-75
2021/05/21 07:04:10;;;;;;;0.70;0.60;;;;;;;19.04;44.78;100214.38;5091584;28;20409;-74
2021/05/21 07:06:37;;;;;;;0.82;0.50;;;;;;;19.05;44.79;100202.59;5074309;28;20101;-75
2021/05/21 07:09:04;;;;;;;0.60;0.60;;;;;;;19.03;44.88;100200.13;5074913;28;20097;-74
2021/05/21 07:11:32;;;;;;;1.17;0.60;;;;;;;19.03;44.90;100197.44;5091313;28;20546;-74
2021/05/21 07:13:59;;;;;;;0.73;0.50;;;;;;;19.04;44.70;100198.25;5074859;28;20066;-75
2021/05/21 07:16:26;;;;;;;1.45;0.60;;;;;;;18.97;44.59;100185.72;5091552;28;20050;-75
2021/05/21 07:18:53;;;;;;;0.45;0.32;;;;;;;19.07;44.67;100193.25;5091334;28;20055;-75
2021/05/21 07:21:22;;;;;;;1.75;0.70;;;;;;;19.07;44.53;100195.13;5075225;28;20042;-74
2021/05/21 07:23:50;;;;;;;0.90;0.65;;;;;;;19.06;44.78;100199.66;5091684;28;20040;-75
2021/05/21 07:26:18;;;;;;;1.30;0.77;;;;;;;19.04;44.88;100187.50;5111496;28;20039;-75
2021/05/21 07:28:45;;;;;;;0.57;0.43;;;;;;;19.06;44.84;100196.97;5059217;28;20040;-74
2021/05/21 07:31:11;;;;;;;1.85;0.70;;;;;;;19.04;44.73;100199.06;5108231;28;20400;-74
2021/05/21 07:33:39;;;;;;;1.33;0.68;;;;;;;19.04;44.57;100206.31;5066618;28;20052;-75
2021/05/21 07:36:07;;;;;;;0.73;0.70;;;;;;;19.09;44.65;100198.41;5111031;28;20035;-75
2021/05/21 07:38:36;;;;;;;2.80;0.80;;;;;;;19.05;44.58;100198.03;5109019;28;20047;-75
2021/05/21 07:41:03;;;;;;;2.33;1.20;;;;;;;19.05;44.73;100200.72;5088516;28;20035;-75
2021/05/21 07:43:31;;;;;;;3.60;2.05;;;;;;;19.08;44.57;100212.88;5112008;28;20407;-75
2021/05/21 07:45:58;;;;;;;6.88;3.85;;;;;;;19.08;44.76;100210.19;5132813;27;20069;-75
2021/05/21 07:48:26;;;;;;;7.97;5.22;;;;;;;19.09;44.44;100201.91;5129603;28;20040;-75
2021/05/21 07:50:54;;;;;;;9.63;7.10;;;;;;;19.07;44.51;100198.63;5101830;28;20056;-75
2021/05/21 07:53:21;;;;;;;9.10;6.65;;;;;;;19.11;44.51;100199.81;5089271;28;20055;-75
2021/05/21 07:55:49;;;;;;;9.02;7.00;;;;;;;19.14;44.40;100195.88;5098383;28;20063;-74
2021/05/21 07:58:16;;;;;;;9.68;7.68;;;;;;;19.12;44.29;100192.59;5116980;28;20043;-74
2021/05/21 08:00:45;;;;;;;9.90;7.10;;;;;;;19.17;44.33;100190.88;5098241;28;20043;-74
2021/05/21 08:03:12;;;;;;;10.00;7.40;;;;;;;19.18;44.47;100195.19;5115571;28;20036;-74
2021/05/21 08:05:39;;;;;;;10.25;7.20;;;;;;;19.20;44.34;100199.53;5116343;28;20050;-74
2021/05/21 08:08:22;;;;;;;9.90;7.13;;;;;;;19.10;44.46;100197.34;5100235;28;20123;-74
2021/05/21 08:10:51;;;;;;;9.32;7.05;;;;;;;19.10;44.24;100200.03;5115216;28;20496;-75
2021/05/21 08:13:19;;;;;;;9.32;6.18;;;;;;;18.97;44.20;100191.09;5114932;28;20478;-75
2021/05/21 08:15:46;;;;;;;8.95;6.47;;;;;;;19.09;44.31;100201.91;5114941;28;20187;-74
2021/05/21 08:18:14;;;;;;;8.52;5.93;;;;;;;19.09;43.85;100193.84;5098305;28;20050;-74
2021/05/21 08:20:43;;;;;;;7.88;5.22;;;;;;;19.10;43.96;100189.28;5064940;28;20067;-74
2021/05/21 08:23:13;;;;;;;8.57;5.75;;;;;;;19.09;43.82;100182.28;5116291;28;20059;-74
2021/05/21 08:25:42;;;;;;;7.40;5.13;;;;;;;19.21;43.86;100190.41;5104606;28;20048;-75
2021/05/21 08:28:10;;;;;;;8.10;5.10;;;;;;;19.18;43.56;100195.19;5077418;28;20496;-74
2021/05/21 08:30:37;;;;;;;7.97;5.00;;;;;;;19.16;43.58;100194.59;5072433;28;20051;-75
2021/05/21 08:33:05;;;;;;;7.57;5.00;;;;;;;19.13;43.95;100184.28;5094283;28;20093;-74
2021/05/21 08:35:32;;;;;;;7.97;4.80;;;;;;;19.16;43.93;100188.41;5061036;28;20055;-74
2021/05/21 08:37:59;;;;;;;8.80;5.40;;;;;;;19.17;43.72;100200.78;5077407;28;20458;-74
2021/05/21 08:40:35;;;;;;;10.45;5.60;;;;;;;19.18;44.10;100197.88;5110119;28;20070;-74
2021/05/21 08:43:07;;;;;;;9.45;5.70;;;;;;;19.20;43.77;100197.66;5111811;28;20041;-74
2021/05/21 08:45:34;;;;;;;9.88;5.28;;;;;;;19.20;43.61;100191.47;5075105;28;20070;-74
2021/05/21 08:48:02;;;;;;;9.60;5.47;;;;;;;19.14;43.51;100177.06;5114681;28;20044;-74
2021/05/21 08:50:31;;;;;;;10.88;5.85;;;;;;;19.23;43.68;100196.38;5113313;28;20055;-74
2021/05/21 08:52:57;;;;;;;11.02;5.60;;;;;;;19.23;43.58;100199.06;5101792;28;20039;-73
2021/05/21 08:55:24;;;;;;;11.63;5.53;;;;;;;19.20;43.00;100202.22;5088165;28;20554;-73
2021/05/21 08:57:51;;;;;;;13.93;5.32;;;;;;;19.17;42.76;100211.53;5094825;28;20781;-73
2021/05/21 09:00:19;;;;;;;12.52;4.75;;;;;;;19.13;41.08;100216.56;5095783;28;20040;-73
2021/05/21 09:02:46;;;;;;;13.38;4.75;;;;;;;19.02;41.55;100206.53;5096217;28;20075;-73
2021/05/21 09:05:14;;;;;;;13.23;5.00;;;;;;;19.01;40.25;100210.28;5069897;28;20101;-74
2021/05/21 09:07:42;;;;;;;13.05;4.80;;;;;;;18.94;39.28;100194.22;5085454;28;20048;-74
2021/05/21 09:10:13;;;;;;;12.50;4.80;;;;;;;18.94;37.67;100214.91;5066785;28;20032;-76
2021/05/21 09:12:43;;;;;;;12.38;4.25;;;;;;;18.98;38.98;100210.72;5097119;28;20048;-76
2021/05/21 09:15:14;;;;;;;16.50;4.30;;;;;;;19.05;37.75;100224.91;5102240;28;20036;-78
2021/05/21 09:18:02;;;;;;;10.82;3.90;;;;;;;18.93;38.82;100210.56;5076199;28;20046;-77
2021/05/21 09:20:36;;;;;;;12.98;4.40;;;;;;;18.95;38.05;100211.97;5097596;28;20090;-76
2021/05/21 09:23:12;;;;;;;10.90;3.90;;;;;;;18.96;37.53;100210.13;5086291;28;20047;-77
2021/05/21 09:25:45;;;;;;;14.20;7.18;;;;;;;18.90;35.99;100217.22;5058240;28;20054;-78
2021/05/21 09:28:33;;;;;;;11.95;6.18;;;;;;;18.86;35.95;100199.88;5106836;28;20048;-76
2021/05/21 09:33:49;;;;;;;9.35;4.60;;;;;;;19.03;36.43;100212.72;5119140;27;20741;-75
2021/05/21 09:36:33;;;;;;;11.68;4.45;;;;;;;19.05;35.06;100210.66;5110551;28;20046;-75
2021/05/21 09:39:01;;;;;;;10.50;3.90;;;;;;;18.97;35.17;100185.72;5076881;28;20036;-76
2021/05/21 09:44:24;;;;;;;10.00;3.83;;;;;;;19.21;35.38;100215.47;5105078;27;745030;-77
2021/05/21 09:46:53;;;;;;;9.02;3.63;;;;;;;19.22;35.41;100192.06;5087362;28;20032;-76
2021/05/21 09:49:34;;;;;;;7.75;3.47;;;;;;;19.11;35.77;100182.88;5106246;28;20122;-79
2021/05/21 09:52:04;;;;;;;7.25;3.40;;;;;;;19.11;35.47;100197.13;5086643;28;20123;-76
2021/05/21 09:54:54;;;;;;;9.70;4.03;;;;;;;19.18;36.44;100211.31;5076330;28;20048;-76
2021/05/21 10:00:10;;;;;;;9.95;4.65;;;;;;;19.35;35.95;100208.84;5116835;27;20797;-75
2021/05/21 10:02:49;;;;;;;10.68;4.95;;;;;;;19.29;36.17;100204.38;5120023;27;20391;-75
2021/05/21 10:05:27;;;;;;;8.20;4.95;;;;;;;19.27;36.20;100216.44;5120872;27;20340;-75
2021/05/21 10:07:58;;;;;;;9.27;5.13;;;;;;;19.29;36.55;100219.72;5072166;28;20544;-76
2021/05/21 10:10:28;;;;;;;8.85;4.95;;;;;;;19.40;36.29;100210.88;5092238;28;20040;-77
2021/05/21 10:13:05;;;;;;;9.43;5.45;;;;;;;19.40;36.47;100196.63;5151906;27;20333;-76
2021/05/21 10:15:44;;;;;;;9.60;5.60;;;;;;;19.37;36.80;100217.53;5112518;28;20405;-75
2021/05/21 10:18:22;;;;;;;11.32;5.75;;;;;;;19.28;36.52;100207.28;5040919;27;835232;-75
2021/05/21 10:21:02;;;;;;;10.40;5.65;;;;;;;19.32;36.77;100220.09;5126865;27;20418;-74
2021/05/21 10:23:45;;;;;;;9.30;5.32;;;;;;;19.39;36.64;100233.44;5110704;27;20388;-76
2021/05/21 10:26:32;;;;;;;9.20;5.20;;;;;;;19.47;36.77;100225.06;5131983;27;20404;-80
2021/05/21 10:29:06;;;;;;;9.40;5.25;;;;;;;19.40;37.26;100218.94;5128660;28;20059;-73
2021/05/21 10:31:36;;;;;;;8.18;4.55;;;;;;;19.40;37.09;100218.13;5110396;28;20047;-78
2021/05/21 10:34:20;;;;;;;9.45;5.10;;;;;;;19.35;37.08;100206.16;5129369;27;20368;-74
2021/05/21 10:37:29;;;;;;;11.63;4.50;;;;;;;19.49;37.00;100204.16;5072332;28;20042;-76
2021/05/21 10:40:24;;;;;;;12.27;4.40;;;;;;;19.61;37.13;100214.13;5094098;28;20051;-77
2021/05/21 10:43:23;;;;;;;8.85;4.05;;;;;;;19.52;36.98;100200.19;5104457;28;20515;-77
2021/05/21 10:46:01;;;;;;;8.23;4.15;;;;;;;19.62;36.90;100205.03;5101325;28;20113;-76
2021/05/21 10:48:31;;;;;;;8.13;4.22;;;;;;;19.59;36.83;100192.84;5087938;28;20056;-76
2021/05/21 10:51:07;;;;;;;9.63;4.28;;;;;;;19.52;36.78;100187.56;5055390;28;20489;-78
2021/05/21 10:53:40;;;;;;;8.45;3.90;;;;;;;19.70;36.95;100194.78;5103779;28;20032;-78
2021/05/21 10:56:07;;;;;;;10.25;3.85;;;;;;;19.90;36.68;100177.56;5089335;28;20074;-76
2021/05/21 10:58:43;;;;;;;8.50;4.00;;;;;;;19.89;37.03;100182.13;5077955;28;20111;-76
2021/05/21 11:01:16;;;;;;;7.88;3.90;;;;;;;19.80;36.85;100183.50;5104657;28;20113;-76
2021/05/21 11:04:02;;;;;;;8.20;3.72;;;;;;;19.68;37.69;100185.28;5105859;28;20549;-76
2021/05/21 11:06:32;;;;;;;7.65;3.50;;;;;;;19.65;36.83;100185.75;5089408;28;20074;-75
2021/05/21 11:09:02;;;;;;;7.65;3.63;;;;;;;19.79;37.39;100189.91;5091268;28;20048;-76
2021/05/21 11:11:50;;;;;;;7.07;3.30;;;;;;;20.04;37.24;100183.56;5075085;28;20040;-76
2021/05/21 11:14:28;;;;;;;7.82;3.45;;;;;;;20.11;36.37;100182.41;5089174;28;20496;-76
2021/05/21 11:16:58;;;;;;;7.53;3.35;;;;;;;20.16;36.33;100173.66;5108267;28;20040;-76
2021/05/21 11:19:28;;;;;;;7.72;2.95;;;;;;;20.18;35.80;100165.34;5091755;28;20044;-76
2021/05/21 11:22:17;;;;;;;8.30;2.72;;;;;;;20.23;34.79;100165.44;5069915;28;20118;-77
2021/05/21 11:24:48;;;;;;;6.38;2.80;;;;;;;20.30;35.74;100164.31;5066942;28;20074;-78
2021/05/21 11:27:15;;;;;;;7.10;3.00;;;;;;;20.35;35.35;100149.31;5108315;28;20047;-78
2021/05/21 11:29:47;;;;;;;8.52;2.90;;;;;;;20.35;35.55;100155.53;5056969;28;20052;-78
2021/05/21 11:32:15;;;;;;;6.50;2.88;;;;;;;20.48;35.52;100160.72;5117137;28;20045;-77
2021/05/21 11:34:43;;;;;;;5.80;2.50;;;;;;;20.41;35.19;100141.16;5110090;27;20067;-77
2021/05/21 11:37:19;;;;;;;6.95;2.80;;;;;;;20.48;35.44;100139.16;5072197;28;20438;-77
2021/05/21 11:39:46;;;;;;;7.18;2.58;;;;;;;20.57;35.41;100128.81;5106165;28;20048;-79
2021/05/21 11:42:13;;;;;;;6.25;2.72;;;;;;;20.61;35.73;100123.81;5106956;28;20051;-77